createdAt,value
2023-03-05T00:00:27.064Z,5.90
2023-03-05T00:02:53.458Z,8.35
2023-03-05T00:05:19.837Z,5.10
2023-03-05T00:07:46.720Z,8.68
2023-03-05T00:10:13.089Z,6.72
2023-03-05T00:12:39.495Z,7.05
2023-03-05T00:15:06.628Z,6.05
2023-03-05T00:17:32.969Z,5.57
2023-03-05T00:20:01.924Z,5.00
2023-03-05T00:22:28.734Z,4.80
2023-03-05T00:24:55.081Z,4.38
2023-03-05T00:27:21.512Z,4.60
2023-03-05T00:29:47.955Z,6.10
2023-03-05T00:32:14.382Z,6.78
2023-03-05T00:34:40.729Z,5.95
2023-03-05T00:37:10.445Z,5.40
2023-03-05T00:39:36.890Z,4.90
2023-03-05T00:42:03.565Z,5.28
2023-03-05T00:44:29.906Z,7.05
2023-03-05T00:46:56.301Z,4.97
2023-03-05T00:49:22.691Z,7.18
2023-03-05T00:51:49.053Z,6.13
2023-03-05T00:54:15.377Z,8.98
2023-03-05T00:56:41.753Z,8.80
2023-03-05T00:59:08.182Z,12.07
2023-03-05T01:01:34.539Z,7.35
2023-03-05T01:04:01.308Z,10.48
2023-03-05T01:06:27.823Z,8.05
2023-03-05T01:08:54.248Z,6.60
2023-03-05T01:11:20.602Z,11.73
2023-03-05T01:13:47.048Z,9.52
2023-03-05T01:16:13.522Z,9.13
2023-03-05T01:18:40.491Z,9.95
2023-03-05T01:21:07.261Z,10.95
2023-03-05T01:23:35.636Z,8.70
2023-03-05T01:26:02.018Z,8.68
2023-03-05T01:28:28.512Z,11.77
2023-03-05T01:30:55.044Z,13.50
2023-03-05T01:33:21.599Z,11.35
2023-03-05T01:35:49.081Z,16.45
2023-03-05T01:38:16.504Z,11.90
2023-03-05T01:40:43.893Z,11.93
2023-03-05T01:43:13.205Z,11.82
2023-03-05T01:46:17.992Z,12.23
2023-03-05T01:48:49.457Z,15.98
2023-03-05T01:51:19.235Z,12.68
2023-03-05T01:53:46.542Z,12.25
2023-03-05T01:56:12.987Z,12.57
2023-03-05T01:58:39.787Z,12.05
2023-03-05T02:01:08.756Z,12.57
2023-03-05T02:03:36.574Z,13.20
2023-03-05T02:06:03.356Z,11.63
2023-03-05T02:08:29.769Z,11.73
2023-03-05T02:10:57.196Z,11.82
2023-03-05T02:13:27.347Z,12.18
2023-03-05T02:15:58.373Z,13.80
2023-03-05T02:18:25.259Z,13.75
2023-03-05T02:20:57.672Z,11.93
2023-03-05T02:23:29.013Z,12.18
2023-03-05T02:25:56.320Z,12.02
2023-03-05T02:28:25.661Z,14.32
2023-03-05T02:30:52.417Z,11.13
2023-03-05T02:33:20.369Z,11.02
2023-03-05T02:35:46.804Z,10.63
2023-03-05T02:38:14.871Z,11.10
2023-03-05T02:40:41.403Z,10.65
2023-03-05T02:43:08.054Z,11.20
2023-03-05T02:45:35.248Z,10.85
2023-03-05T02:48:02.079Z,11.00
2023-03-05T02:50:29.477Z,9.93
2023-03-05T02:52:55.842Z,12.07
2023-03-05T02:55:22.476Z,15.57
2023-03-05T02:57:48.826Z,11.93
2023-03-05T03:00:15.949Z,9.48
2023-03-05T03:02:42.465Z,17.88
2023-03-05T03:05:09.530Z,13.95
2023-03-05T03:07:36.550Z,12.60
2023-03-05T03:10:04.701Z,8.88
2023-03-05T03:12:31.144Z,14.93
2023-03-05T03:14:57.470Z,13.00
2023-03-05T03:17:24.343Z,9.48
2023-03-05T03:19:50.661Z,10.30
2023-03-05T03:22:17.011Z,10.45
2023-03-05T03:24:43.838Z,11.32
2023-03-05T03:27:10.666Z,12.60
2023-03-05T03:29:37.027Z,9.15
2023-03-05T03:32:04.624Z,10.32
2023-03-05T03:34:31.111Z,13.65
2023-03-05T03:36:57.482Z,13.10
2023-03-05T03:39:25.383Z,10.25
2023-03-05T03:41:53.115Z,10.88
2023-03-05T03:44:21.773Z,10.57
2023-03-05T03:46:59.622Z,9.85
2023-03-05T03:49:37.293Z,12.40
2023-03-05T03:52:03.773Z,10.20
2023-03-05T03:54:30.232Z,11.75
2023-03-05T03:56:56.709Z,10.32
2023-03-05T03:59:23.390Z,9.35
2023-03-05T04:01:49.897Z,10.45
2023-03-05T04:04:16.374Z,9.57
2023-03-05T04:06:43.228Z,9.88
2023-03-05T04:09:09.943Z,9.35
2023-03-05T04:11:37.341Z,11.15
2023-03-05T04:14:04.337Z,10.02
2023-03-05T04:16:31.085Z,11.90
2023-03-05T04:18:57.485Z,9.63
2023-03-05T04:21:24.075Z,9.52
2023-03-05T04:23:50.404Z,12.45
2023-03-05T04:26:16.775Z,12.93
2023-03-05T04:28:43.111Z,10.80
2023-03-05T04:31:09.638Z,9.98
2023-03-05T04:33:36.129Z,9.85
2023-03-05T04:36:03.529Z,11.50
2023-03-05T04:38:29.883Z,10.38
2023-03-05T04:40:56.260Z,11.15
2023-03-05T04:43:22.697Z,13.70
2023-03-05T04:45:49.136Z,10.80
2023-03-05T04:48:16.901Z,13.93
2023-03-05T04:50:43.282Z,10.68
2023-03-05T04:53:09.613Z,12.95
2023-03-05T04:55:35.995Z,10.98
2023-03-05T04:58:02.443Z,10.32
2023-03-05T05:00:28.790Z,12.82
2023-03-05T05:02:55.217Z,10.50
2023-03-05T05:05:24.604Z,11.07
2023-03-05T05:07:55.312Z,15.52
2023-03-05T05:10:22.503Z,14.00
2023-03-05T05:12:48.967Z,14.13
2023-03-05T05:15:15.375Z,12.65
2023-03-05T05:17:41.737Z,11.73
2023-03-05T05:20:10.827Z,11.88
2023-03-05T05:22:37.793Z,10.80
2023-03-05T05:25:05.106Z,15.70
2023-03-05T05:27:31.495Z,13.23
2023-03-05T05:29:58.521Z,11.43
2023-03-05T05:32:25.505Z,10.43
2023-03-05T05:34:56.496Z,12.52
2023-03-05T05:37:23.255Z,11.30
2023-03-05T05:39:50.352Z,11.43
2023-03-05T05:42:22.233Z,10.57
2023-03-05T05:44:48.669Z,10.50
2023-03-05T05:47:16.517Z,10.55
2023-03-05T05:49:42.905Z,11.05
2023-03-05T05:52:09.348Z,10.40
2023-03-05T05:54:35.870Z,10.77
2023-03-05T05:57:02.311Z,9.85
2023-03-05T05:59:28.718Z,9.90
2023-03-05T06:01:55.227Z,10.55
2023-03-05T06:04:21.825Z,13.48
2023-03-05T06:06:48.379Z,11.93
2023-03-05T06:09:15.077Z,11.07
2023-03-05T06:11:41.610Z,14.32
2023-03-05T06:14:08.704Z,12.38
2023-03-05T06:16:35.354Z,11.18
2023-03-05T06:19:04.458Z,11.80
2023-03-05T06:21:33.259Z,13.27
2023-03-05T06:23:59.954Z,13.05
2023-03-05T06:26:26.369Z,11.20
2023-03-05T06:28:53.707Z,11.55
2023-03-05T06:31:22.846Z,12.90
2023-03-05T06:33:49.929Z,11.30
2023-03-05T06:36:18.633Z,11.38
2023-03-05T06:38:45.462Z,11.40
2023-03-05T06:41:15.425Z,11.60
2023-03-05T06:43:43.909Z,13.02
2023-03-05T06:46:16.332Z,11.95
2023-03-05T06:48:43.231Z,12.45
2023-03-05T06:51:18.593Z,12.82
2023-03-05T06:53:46.768Z,12.27
2023-03-05T06:56:16.597Z,11.60
2023-03-05T06:58:45.616Z,12.80
2023-03-05T07:01:12.974Z,17.15
2023-03-05T07:03:39.512Z,13.30
2023-03-05T07:06:07.848Z,18.30
2023-03-05T07:08:34.279Z,13.63
2023-03-05T07:11:01.060Z,13.43
2023-03-05T07:13:27.903Z,13.75
2023-03-05T07:15:54.718Z,15.18
2023-03-05T07:18:21.212Z,15.10
2023-03-05T07:20:47.677Z,14.65
2023-03-05T07:23:14.052Z,14.88
2023-03-05T07:25:40.517Z,18.27
2023-03-05T07:28:07.045Z,15.77
2023-03-05T07:30:34.062Z,15.27
2023-03-05T07:33:00.483Z,16.25
2023-03-05T07:35:26.924Z,15.55
2023-03-05T07:37:54.909Z,16.83
2023-03-05T07:40:22.238Z,15.63
2023-03-05T07:42:48.642Z,16.10
2023-03-05T07:45:14.994Z,16.00
2023-03-05T07:47:41.364Z,16.10
2023-03-05T07:50:08.417Z,17.20
2023-03-05T07:52:34.775Z,15.70
2023-03-05T07:55:01.166Z,16.88
2023-03-05T07:57:27.567Z,17.77
2023-03-05T07:59:53.950Z,16.95
2023-03-05T08:02:21.552Z,17.15
2023-03-05T08:04:47.958Z,16.73
2023-03-05T08:07:15.954Z,15.85
2023-03-05T08:09:42.824Z,17.52
2023-03-05T08:12:10.310Z,17.27
2023-03-05T08:14:37.840Z,17.30
2023-03-05T08:17:05.569Z,16.67
2023-03-05T08:19:33.163Z,16.55
2023-03-05T08:21:59.930Z,16.67
2023-03-05T08:24:29.541Z,16.10
2023-03-05T08:26:57.463Z,15.63
2023-03-05T08:29:25.116Z,14.70
2023-03-05T08:31:53.573Z,16.83
2023-03-05T08:34:21.153Z,15.43
2023-03-05T08:36:48.847Z,16.45
2023-03-05T08:39:15.342Z,17.35
2023-03-05T08:41:41.723Z,15.45
2023-03-05T08:44:08.248Z,18.52
2023-03-05T08:46:34.919Z,15.43
2023-03-05T08:49:01.330Z,17.38
2023-03-05T08:51:27.880Z,18.67
2023-03-05T08:53:57.779Z,18.55
2023-03-05T08:56:26.296Z,20.48
2023-03-05T08:58:53.020Z,18.55
2023-03-05T09:01:19.929Z,20.83
2023-03-05T09:03:47.111Z,21.65
2023-03-05T09:06:13.486Z,22.17
2023-03-05T09:08:42.215Z,23.02
2023-03-05T09:11:11.508Z,21.58
2023-03-05T09:13:38.061Z,21.98
2023-03-05T09:16:07.746Z,22.10
2023-03-05T09:18:36.551Z,22.65
2023-03-05T09:21:12.205Z,22.48
2023-03-05T09:23:39.112Z,19.88
2023-03-05T09:26:06.886Z,22.85
2023-03-05T09:28:33.682Z,20.70
2023-03-05T09:31:08.168Z,20.63
2023-03-05T09:33:36.542Z,20.50
2023-03-05T09:36:04.253Z,21.27
2023-03-05T09:38:31.299Z,20.48
2023-03-05T09:41:07.704Z,19.77
2023-03-05T09:43:48.907Z,21.55
2023-03-05T09:46:51.012Z,20.95
2023-03-05T09:49:56.102Z,21.17
2023-03-05T09:52:39.134Z,22.13
2023-03-05T09:55:14.565Z,21.63
2023-03-05T09:57:51.525Z,22.05
2023-03-05T10:00:33.047Z,22.00
2023-03-05T10:03:04.056Z,22.88
2023-03-05T10:05:49.062Z,23.88
2023-03-05T10:08:24.524Z,23.05
2023-03-05T10:10:58.221Z,24.15
2023-03-05T10:13:30.004Z,24.50
2023-03-05T10:16:03.198Z,25.02
2023-03-05T10:18:55.480Z,25.13
2023-03-05T10:21:39.197Z,24.35
2023-03-05T10:24:38.645Z,25.00
2023-03-05T10:27:15.224Z,23.42
2023-03-05T10:30:21.038Z,23.70
2023-03-05T10:33:29.199Z,21.95
2023-03-05T10:36:32.529Z,22.88
2023-03-05T10:39:31.328Z,20.27
2023-03-05T10:42:25.455Z,17.75
2023-03-05T10:44:57.974Z,17.65
2023-03-05T10:47:30.083Z,15.23
2023-03-05T10:49:58.656Z,13.90
2023-03-05T10:52:40.551Z,13.38
2023-03-05T10:55:16.345Z,11.05
2023-03-05T10:57:42.753Z,11.68
2023-03-05T11:00:20.156Z,11.63
2023-03-05T11:03:12.897Z,11.45
2023-03-05T11:05:44.013Z,11.73
2023-03-05T11:08:19.525Z,12.07
2023-03-05T11:10:46.027Z,12.07
2023-03-05T11:13:26.909Z,12.10
2023-03-05T11:16:01.974Z,12.80
2023-03-05T11:18:34.123Z,13.07
2023-03-05T11:21:12.460Z,12.65
2023-03-05T11:23:40.241Z,13.23
2023-03-05T11:26:12.623Z,13.23
2023-03-05T11:28:55.074Z,14.70
2023-03-05T11:31:24.768Z,14.18
2023-03-05T11:34:00.892Z,14.60
2023-03-05T11:36:35.963Z,13.65
2023-03-05T11:39:14.762Z,12.45
2023-03-05T11:41:50.455Z,12.38
2023-03-05T11:44:28.613Z,11.23
2023-03-05T11:47:04.953Z,10.32
2023-03-05T11:49:34.790Z,9.68
2023-03-05T11:52:12.731Z,10.10
2023-03-05T11:55:04.351Z,10.40
2023-03-05T11:57:44.071Z,10.55
2023-03-05T12:00:17.909Z,10.80
2023-03-05T12:02:49.105Z,11.68
2023-03-05T12:05:16.102Z,8.05
2023-03-05T12:07:48.430Z,9.18
2023-03-05T12:10:19.914Z,10.07
2023-03-05T12:13:05.185Z,9.52
2023-03-05T12:15:39.959Z,10.38
2023-03-05T12:18:26.874Z,14.23
2023-03-05T12:21:04.860Z,12.10
2023-03-05T12:23:45.690Z,10.43
2023-03-05T12:26:40.883Z,10.57
2023-03-05T12:29:27.953Z,10.70
2023-03-05T12:31:54.322Z,10.82
2023-03-05T12:34:40.482Z,11.18
2023-03-05T12:37:12.527Z,10.57
2023-03-05T12:39:45.260Z,11.70
2023-03-05T12:42:38.053Z,11.93
2023-03-05T12:45:26.972Z,11.90
2023-03-05T12:47:58.292Z,12.18
2023-03-05T12:50:28.061Z,13.68
2023-03-05T12:53:06.932Z,14.52
2023-03-05T12:55:50.051Z,14.10
2023-03-05T12:58:24.432Z,13.27
2023-03-05T13:01:04.971Z,9.93
2023-03-05T13:03:35.369Z,10.85
2023-03-05T13:06:05.946Z,10.07
2023-03-05T13:08:36.070Z,10.23
2023-03-05T13:11:18.643Z,10.25
2023-03-05T13:13:48.689Z,9.32
2023-03-05T13:16:22.670Z,9.55
2023-03-05T13:18:50.375Z,8.15
2023-03-05T13:21:19.269Z,8.30
2023-03-05T13:24:00.240Z,8.25
2023-03-05T13:26:29.107Z,7.03
2023-03-05T13:29:16.821Z,7.55
2023-03-05T13:31:48.179Z,8.55
2023-03-05T13:34:18.606Z,8.48
2023-03-05T13:37:05.366Z,8.55
2023-03-05T13:40:03.321Z,10.07
2023-03-05T13:42:34.772Z,8.23
2023-03-05T13:45:06.139Z,7.63
2023-03-05T13:47:35.519Z,7.97
2023-03-05T13:50:06.827Z,7.60
2023-03-05T13:52:36.600Z,7.75
2023-03-05T13:55:11.458Z,8.75
2023-03-05T13:57:46.185Z,7.72
2023-03-05T14:00:34.072Z,8.52
2023-03-05T14:03:09.454Z,9.18
2023-03-05T14:05:36.410Z,8.85
2023-03-05T14:08:03.555Z,8.70
2023-03-05T14:10:36.103Z,8.65
2023-03-05T14:13:23.827Z,9.32
2023-03-05T14:16:07.723Z,9.45
2023-03-05T14:18:35.629Z,8.77
2023-03-05T14:21:05.618Z,9.88
2023-03-05T14:23:45.283Z,9.85
2023-03-05T14:26:29.494Z,8.70
2023-03-05T14:29:00.302Z,8.88
2023-03-05T14:31:28.207Z,9.07
2023-03-05T14:34:01.217Z,9.13
2023-03-05T14:36:29.534Z,8.52
2023-03-05T14:38:56.853Z,8.43
2023-03-05T14:41:40.970Z,8.38
2023-03-05T14:44:17.850Z,8.52
2023-03-05T14:46:49.500Z,8.88
2023-03-05T14:49:16.823Z,8.90
2023-03-05T14:51:45.465Z,8.93
2023-03-05T14:54:23.885Z,9.77
2023-03-05T14:56:50.787Z,9.13
2023-03-05T14:59:18.304Z,10.50
2023-03-05T15:01:45.005Z,8.93
2023-03-05T15:04:11.429Z,9.18
2023-03-05T15:06:40.940Z,9.23
2023-03-05T15:09:07.849Z,9.50
2023-03-05T15:11:34.769Z,9.93
2023-03-05T15:14:01.264Z,9.93
2023-03-05T15:16:27.704Z,14.52
2023-03-05T15:18:54.094Z,10.68
2023-03-05T15:21:20.444Z,10.00
2023-03-05T15:23:47.008Z,10.10
2023-03-05T15:26:15.189Z,10.85
2023-03-05T15:28:43.432Z,10.10
2023-03-05T15:31:10.418Z,10.95
2023-03-05T15:33:57.170Z,11.57
2023-03-05T15:36:23.639Z,11.20
2023-03-05T15:38:52.588Z,11.95
2023-03-05T15:41:19.059Z,12.20
2023-03-05T15:43:45.504Z,11.30
2023-03-05T15:46:12.027Z,10.43
2023-03-05T15:48:38.499Z,9.55
2023-03-05T15:51:08.155Z,10.00
2023-03-05T15:53:34.626Z,12.13
2023-03-05T15:56:01.086Z,10.98
2023-03-05T15:58:27.456Z,11.05
2023-03-05T16:00:54.360Z,11.23
2023-03-05T16:03:20.867Z,10.85
2023-03-05T16:05:47.357Z,10.73
2023-03-05T16:08:13.789Z,10.73
2023-03-05T16:10:40.895Z,10.15
2023-03-05T16:13:13.307Z,11.05
2023-03-05T16:15:41.359Z,10.75
2023-03-05T16:18:11.658Z,10.55
2023-03-05T16:20:38.151Z,9.95
2023-03-05T16:23:05.901Z,10.93
2023-03-05T16:25:32.781Z,12.38
2023-03-05T16:27:59.351Z,11.95
2023-03-05T16:30:25.796Z,12.68
2023-03-05T16:32:53.735Z,12.70
2023-03-05T16:35:20.556Z,11.82
2023-03-05T16:37:47.615Z,11.63
2023-03-05T16:40:14.318Z,11.30
2023-03-05T16:42:40.749Z,12.25
2023-03-05T16:45:11.437Z,10.10
2023-03-05T16:47:38.606Z,9.82
2023-03-05T16:50:06.278Z,10.40
2023-03-05T16:52:32.932Z,10.35
2023-03-05T16:54:59.590Z,10.25
2023-03-05T16:57:26.216Z,10.45
2023-03-05T16:59:53.915Z,10.57
2023-03-05T17:02:20.329Z,10.02
2023-03-05T17:04:46.718Z,10.13
2023-03-05T17:07:13.222Z,9.70
2023-03-05T17:09:39.777Z,10.25
2023-03-05T17:12:06.521Z,10.30
2023-03-05T17:14:32.971Z,10.13
2023-03-05T17:17:01.139Z,10.27
2023-03-05T17:19:27.665Z,10.70
2023-03-05T17:21:54.294Z,9.73
2023-03-05T17:24:22.264Z,10.25
2023-03-05T17:26:49.672Z,10.50
2023-03-05T17:29:16.156Z,10.65
2023-03-05T17:31:43.145Z,10.73
2023-03-05T17:34:10.080Z,10.98
2023-03-05T17:36:36.739Z,10.05
2023-03-05T17:39:04.458Z,10.63
2023-03-05T17:41:30.827Z,11.05
2023-03-05T17:43:57.438Z,10.75
2023-03-05T17:46:23.868Z,11.30
2023-03-05T17:48:50.295Z,11.35
2023-03-05T17:51:16.747Z,10.30
2023-03-05T17:53:43.567Z,11.10
2023-03-05T17:56:11.820Z,11.02
2023-03-05T17:58:38.947Z,10.90
2023-03-05T18:01:07.112Z,11.07
2023-03-05T18:03:34.255Z,11.23
2023-03-05T18:06:00.598Z,10.90
2023-03-05T18:08:26.986Z,12.05
2023-03-05T18:10:54.465Z,11.10
2023-03-05T18:13:20.997Z,11.35
2023-03-05T18:15:47.764Z,11.18
2023-03-05T18:18:15.656Z,11.30
2023-03-05T18:20:42.261Z,13.00
2023-03-05T18:23:08.723Z,11.48
2023-03-05T18:25:35.275Z,11.98
2023-03-05T18:28:06.327Z,12.30
2023-03-05T18:30:33.365Z,12.50
2023-03-05T18:33:00.499Z,11.15
2023-03-05T18:35:29.053Z,12.23
2023-03-05T18:37:56.388Z,11.40
2023-03-05T18:40:26.311Z,12.32
2023-03-05T18:42:52.984Z,11.93
2023-03-05T18:45:21.383Z,12.40
2023-03-05T18:47:52.433Z,12.18
2023-03-05T18:50:18.870Z,12.32
2023-03-05T18:52:45.570Z,12.52
2023-03-05T18:55:17.767Z,12.02
2023-03-05T18:57:44.369Z,13.35
2023-03-05T19:00:14.843Z,13.75
2023-03-05T19:02:41.430Z,13.52
2023-03-05T19:05:08.662Z,13.90
2023-03-05T19:07:35.303Z,14.18
2023-03-05T19:10:07.326Z,15.50
2023-03-05T19:12:38.701Z,14.52
2023-03-05T19:15:06.088Z,14.30
2023-03-05T19:17:32.784Z,15.05
2023-03-05T19:19:59.698Z,13.95
2023-03-05T19:22:26.961Z,16.02
2023-03-05T19:24:56.854Z,17.00
2023-03-05T19:27:23.295Z,15.95
2023-03-05T19:29:49.959Z,15.88
2023-03-05T19:32:21.868Z,16.88
2023-03-05T19:34:48.653Z,15.95
2023-03-05T19:37:15.123Z,15.73
2023-03-05T19:39:42.238Z,16.75
2023-03-05T19:42:08.858Z,18.50
2023-03-05T19:44:35.460Z,16.95
2023-03-05T19:47:04.649Z,17.92
2023-03-05T19:49:31.046Z,18.52
2023-03-05T19:52:04.878Z,18.95
2023-03-05T19:57:01.093Z,16.08
2023-03-05T19:59:27.555Z,17.95
2023-03-05T20:01:57.427Z,19.40
2023-03-05T20:04:29.072Z,18.33
2023-03-05T20:06:55.480Z,19.70
2023-03-05T20:09:21.944Z,18.90
2023-03-05T20:11:48.473Z,19.50
2023-03-05T20:14:15.051Z,19.95
2023-03-05T20:16:43.076Z,19.73
2023-03-05T20:19:16.102Z,19.17
2023-03-05T20:21:43.368Z,18.48
2023-03-05T20:24:18.141Z,18.88
2023-03-05T20:26:46.035Z,20.17
2023-03-05T20:29:16.927Z,18.65
2023-03-05T20:31:44.120Z,21.10
2023-03-05T20:34:14.010Z,22.00
2023-03-05T20:36:40.756Z,20.90
2023-03-05T20:39:18.970Z,22.27
2023-03-05T20:41:45.626Z,22.83
2023-03-05T20:44:13.626Z,23.65
2023-03-05T20:46:49.486Z,22.42
2023-03-05T20:49:15.933Z,22.70
2023-03-05T20:51:42.299Z,22.77
2023-03-05T20:54:11.593Z,23.58
2023-03-05T20:56:38.156Z,23.02
2023-03-05T20:59:08.477Z,22.05
2023-03-05T21:01:38.665Z,23.52
2023-03-05T21:04:06.264Z,22.92
2023-03-05T21:06:36.708Z,22.88
2023-03-05T21:09:04.018Z,21.08
2023-03-05T21:11:31.804Z,22.98
2023-03-05T21:13:59.214Z,24.42
2023-03-05T21:16:28.756Z,24.52
2023-03-05T21:18:57.303Z,22.50
2023-03-05T21:21:23.785Z,23.52
2023-03-05T21:23:50.382Z,24.77
2023-03-05T21:26:17.009Z,21.27
2023-03-05T21:28:43.624Z,23.52
2023-03-05T21:31:16.449Z,22.88
2023-03-05T21:33:43.015Z,26.58
2023-03-05T21:36:09.714Z,34.22
2023-03-05T21:38:36.356Z,37.55
2023-03-05T21:41:04.108Z,38.42
2023-03-05T21:43:31.254Z,44.15
2023-03-05T21:46:00.746Z,40.15
2023-03-05T21:48:27.330Z,45.47
2023-03-05T21:50:55.086Z,44.92
2023-03-05T21:53:21.701Z,42.58
2023-03-05T21:56:03.261Z,45.05
2023-03-05T21:58:32.578Z,43.13
2023-03-05T22:01:02.590Z,42.78
2023-03-05T22:03:29.844Z,41.60
2023-03-05T22:05:56.922Z,43.95
2023-03-05T22:08:23.877Z,46.42
2023-03-05T22:10:50.359Z,46.28
2023-03-05T22:13:17.877Z,44.75
2023-03-05T22:15:53.351Z,47.60
2023-03-05T22:18:27.213Z,45.83
2023-03-05T22:20:54.542Z,48.60
2023-03-05T22:23:22.537Z,49.72
2023-03-05T22:25:57.280Z,52.47
2023-03-05T22:28:23.746Z,47.20
2023-03-05T22:30:50.164Z,48.03
2023-03-05T22:33:16.565Z,49.55
2023-03-05T22:35:43.143Z,46.83
2023-03-05T22:38:10.591Z,54.90
2023-03-05T22:40:40.192Z,50.28
2023-03-05T22:43:06.667Z,51.92
2023-03-05T22:45:33.507Z,56.53
2023-03-05T22:48:00.796Z,55.42
2023-03-05T22:50:27.469Z,59.28
2023-03-05T22:52:54.398Z,59.08
2023-03-05T22:55:21.118Z,54.58
2023-03-05T22:57:47.950Z,53.33
2023-03-05T23:00:18.380Z,57.35
2023-03-05T23:02:44.809Z,53.58
2023-03-05T23:05:11.776Z,53.03
2023-03-05T23:07:41.658Z,54.10
2023-03-05T23:10:10.280Z,50.20
2023-03-05T23:12:40.166Z,52.00
2023-03-05T23:15:12.625Z,46.63
2023-03-05T23:17:39.242Z,48.97
2023-03-05T23:20:09.329Z,47.65
2023-03-05T23:22:36.938Z,49.97
2023-03-05T23:25:03.923Z,48.88
2023-03-05T23:27:30.306Z,48.97
2023-03-05T23:30:21.044Z,53.35
2023-03-05T23:32:52.399Z,47.15
2023-03-05T23:35:23.613Z,47.17
2023-03-05T23:37:50.753Z,43.63
2023-03-05T23:40:30.551Z,47.15
2023-03-05T23:42:56.998Z,44.33
2023-03-05T23:45:24.633Z,49.13
2023-03-05T23:47:52.855Z,47.70
2023-03-05T23:50:25.747Z,45.95
2023-03-05T23:52:54.272Z,44.97
2023-03-05T23:55:24.376Z,46.33
2023-03-05T23:57:50.955Z,43.30
